JST824 YSSY-YBBN
Flight info
| Callsign | JST824 |
|---|---|
| Flight time | 1h 25m |
| Altitude | 37000 |
| Route | OLSEM Y193 BANDA H252 BN |
| Aircraft | A21N/M-SDE2E3FGHIRWXY/LB1 |
Departure
| Time | 2026-05-05 09:37 |
|---|---|
| Airport | Sydney Kingsford Smith International Airport (YSSY) |
Arrival
| Time | 2026-05-05 11:02 |
|---|---|
| Airport | Brisbane International Airport (YBBN) |
| Time | Latitude | Longitude | Altitude | Speed | Heading |
|---|---|---|---|---|---|
| 2026-05-05 09:09 | -33.93525 | 151.17770 | 30 ft | 0 kts | 284° |
| 2026-05-05 09:23 | -33.93526 | 151.17774 | 30 ft | 2 kts | 280° |
| 2026-05-05 09:23 | -33.93528 | 151.17789 | 30 ft | 2 kts | 278° |
| 2026-05-05 09:23 | -33.93529 | 151.17812 | 30 ft | 3 kts | 253° |
| 2026-05-05 09:24 | -33.93520 | 151.17831 | 28 ft | 3 kts | 216° |
| 2026-05-05 09:24 | -33.93503 | 151.17842 | 28 ft | 3 kts | 193° |
| 2026-05-05 09:24 | -33.93493 | 151.17844 | 30 ft | 1 kts | 190° |
| 2026-05-05 09:24 | -33.93491 | 151.17845 | 30 ft | 0 kts | 190° |
| 2026-05-05 09:28 | -33.93519 | 151.17839 | 28 ft | 7 kts | 190° |
| 2026-05-05 09:28 | -33.93577 | 151.17826 | 30 ft | 10 kts | 190° |
| 2026-05-05 09:28 | -33.93660 | 151.17808 | 30 ft | 14 kts | 192° |
| 2026-05-05 09:29 | -33.93774 | 151.17774 | 30 ft | 21 kts | 193° |
| 2026-05-05 09:29 | -33.93942 | 151.17790 | 29 ft | 29 kts | 167° |
| 2026-05-05 09:29 | -33.94150 | 151.17846 | 30 ft | 31 kts | 168° |
| 2026-05-05 09:29 | -33.94346 | 151.17895 | 30 ft | 26 kts | 168° |
| 2026-05-05 09:30 | -33.94494 | 151.17883 | 29 ft | 17 kts | 190° |
| 2026-05-05 09:30 | -33.94574 | 151.17896 | 30 ft | 9 kts | 169° |
| 2026-05-05 09:30 | -33.94646 | 151.17913 | 30 ft | 14 kts | 168° |
| 2026-05-05 09:30 | -33.94793 | 151.17951 | 30 ft | 30 kts | 168° |
| 2026-05-05 09:31 | -33.95032 | 151.18013 | 31 ft | 34 kts | 162° |
| 2026-05-05 09:31 | -33.95099 | 151.18094 | 31 ft | 3 kts | 90° |
| 2026-05-05 09:31 | -33.95097 | 151.18106 | 31 ft | 4 kts | 81° |
| 2026-05-05 09:31 | -33.95079 | 151.18218 | 31 ft | 20 kts | 78° |
| 2026-05-05 09:32 | -33.95048 | 151.18394 | 31 ft | 19 kts | 77° |
| 2026-05-05 09:32 | -33.95023 | 151.18532 | 30 ft | 16 kts | 77° |
| 2026-05-05 09:32 | -33.95002 | 151.18646 | 30 ft | 12 kts | 77° |
| 2026-05-05 09:32 | -33.94990 | 151.18706 | 29 ft | 0 kts | 77° |
| 2026-05-05 09:35 | -33.94989 | 151.18712 | 29 ft | 4 kts | 77° |
| 2026-05-05 09:35 | -33.95075 | 151.18857 | 26 ft | 14 kts | 168° |
| 2026-05-05 09:35 | -33.95153 | 151.18878 | 27 ft | 6 kts | 167° |
| 2026-05-05 09:36 | -33.95155 | 151.18878 | 27 ft | 1 kts | 167° |
| 2026-05-05 09:36 | -33.95400 | 151.18941 | 27 ft | 70 kts | 168° |
| 2026-05-05 09:36 | -33.96082 | 151.19118 | 28 ft | 130 kts | 167° |
| 2026-05-05 09:36 | -33.97126 | 151.19383 | 258 ft | 162 kts | 169° |
| 2026-05-05 09:37 | -33.97834 | 151.19573 | 792 ft | 165 kts | 166° |
| 2026-05-05 09:37 | -33.99167 | 151.21092 | 726 ft | 238 kts | 122° |
| 2026-05-05 09:37 | -34.00055 | 151.22819 | 744 ft | 233 kts | 130° |
| 2026-05-05 09:37 | -34.01134 | 151.24338 | 1126 ft | 251 kts | 135° |
| 2026-05-05 09:38 | -34.02457 | 151.25952 | 1267 ft | 289 kts | 138° |
| 2026-05-05 09:38 | -34.03883 | 151.27517 | 1264 ft | 265 kts | 141° |
| 2026-05-05 09:38 | -34.05118 | 151.28801 | 1900 ft | 217 kts | 142° |
| 2026-05-05 09:38 | -34.06302 | 151.29979 | 2542 ft | 223 kts | 143° |
| 2026-05-05 09:39 | -34.07550 | 151.31187 | 2723 ft | 223 kts | 143° |
| 2026-05-05 09:39 | -34.08740 | 151.32337 | 3478 ft | 226 kts | 143° |
| 2026-05-05 09:39 | -34.09952 | 151.33506 | 4392 ft | 228 kts | 143° |
| 2026-05-05 09:39 | -34.11201 | 151.34720 | 5250 ft | 233 kts | 143° |
| 2026-05-05 09:40 | -34.12404 | 151.36082 | 5983 ft | 244 kts | 124° |
| 2026-05-05 09:40 | -34.12985 | 151.38036 | 6718 ft | 254 kts | 92° |
| 2026-05-05 09:40 | -34.12877 | 151.39449 | 7187 ft | 258 kts | 71° |
| 2026-05-05 09:40 | -34.11997 | 151.41325 | 7915 ft | 260 kts | 41° |
| 2026-05-05 09:41 | -34.10089 | 151.43087 | 8961 ft | 263 kts | 33° |
| 2026-05-05 09:41 | -34.09078 | 151.43949 | 9489 ft | 265 kts | 34° |
| 2026-05-05 09:41 | -34.07545 | 151.45214 | 10239 ft | 268 kts | 28° |
| 2026-05-05 09:41 | -34.05894 | 151.46279 | 10909 ft | 270 kts | 22° |
| 2026-05-05 09:42 | -34.04163 | 151.47193 | 11575 ft | 273 kts | 19° |
| 2026-05-05 09:42 | -34.02377 | 151.48001 | 12238 ft | 276 kts | 17° |
| 2026-05-05 09:42 | -34.00547 | 151.48737 | 12901 ft | 279 kts | 15° |
| 2026-05-05 09:42 | -33.98678 | 151.49425 | 13542 ft | 282 kts | 14° |
| 2026-05-05 09:43 | -33.96780 | 151.50080 | 14158 ft | 285 kts | 13° |
| 2026-05-05 09:43 | -33.94864 | 151.50717 | 14768 ft | 286 kts | 13° |
| 2026-05-05 09:43 | -33.92937 | 151.51345 | 15369 ft | 288 kts | 12° |
| 2026-05-05 09:43 | -33.90998 | 151.51972 | 15950 ft | 289 kts | 12° |
| 2026-05-05 09:44 | -33.89049 | 151.52604 | 16528 ft | 291 kts | 12° |
| 2026-05-05 09:44 | -33.87091 | 151.53239 | 17115 ft | 292 kts | 12° |
| 2026-05-05 09:44 | -33.85123 | 151.53879 | 17684 ft | 294 kts | 12° |
| 2026-05-05 09:44 | -33.83140 | 151.54525 | 18246 ft | 296 kts | 12° |
| 2026-05-05 09:45 | -33.81149 | 151.55173 | 18758 ft | 297 kts | 12° |
| 2026-05-05 09:45 | -33.79147 | 151.55826 | 19227 ft | 299 kts | 12° |
| 2026-05-05 09:45 | -33.77133 | 151.56485 | 19698 ft | 300 kts | 12° |
| 2026-05-05 09:45 | -33.75109 | 151.57148 | 20162 ft | 302 kts | 12° |
| 2026-05-05 09:46 | -33.73080 | 151.57813 | 20619 ft | 304 kts | 12° |
| 2026-05-05 09:46 | -33.71036 | 151.58481 | 21068 ft | 305 kts | 11° |
| 2026-05-05 09:46 | -33.68989 | 151.59152 | 21520 ft | 307 kts | 13° |
| 2026-05-05 09:46 | -33.66987 | 151.59991 | 21940 ft | 311 kts | 19° |
| 2026-05-05 09:47 | -33.65009 | 151.61068 | 22367 ft | 314 kts | 22° |
| 2026-05-05 09:47 | -33.63062 | 151.62284 | 22786 ft | 317 kts | 24° |
| 2026-05-05 09:47 | -33.61128 | 151.63599 | 23063 ft | 326 kts | 26° |
| 2026-05-05 09:47 | -33.59137 | 151.65025 | 23157 ft | 334 kts | 27° |
| 2026-05-05 09:48 | -33.57230 | 151.66463 | 23994 ft | 323 kts | 27° |
| 2026-05-05 09:48 | -33.55334 | 151.67929 | 24284 ft | 325 kts | 27° |
| 2026-05-05 09:48 | -33.53437 | 151.69415 | 24619 ft | 326 kts | 27° |
| 2026-05-05 09:48 | -33.51493 | 151.70787 | 24948 ft | 323 kts | 20° |
| 2026-05-05 09:49 | -33.49459 | 151.71928 | 25278 ft | 322 kts | 16° |
| 2026-05-05 09:49 | -33.47385 | 151.72914 | 25608 ft | 320 kts | 13° |
| 2026-05-05 09:49 | -33.45281 | 151.73793 | 25941 ft | 319 kts | 11° |
| 2026-05-05 09:49 | -33.43163 | 151.74592 | 26268 ft | 319 kts | 9° |
| 2026-05-05 09:50 | -33.41033 | 151.75333 | 26595 ft | 318 kts | 8° |
| 2026-05-05 09:50 | -33.38901 | 151.76042 | 26911 ft | 318 kts | 7° |
| 2026-05-05 09:50 | -33.36763 | 151.76740 | 27236 ft | 318 kts | 7° |
| 2026-05-05 09:50 | -33.34624 | 151.77431 | 27542 ft | 319 kts | 6° |
| 2026-05-05 09:51 | -33.32484 | 151.78121 | 27861 ft | 319 kts | 6° |
| 2026-05-05 09:51 | -33.30342 | 151.78809 | 28165 ft | 319 kts | 6° |
| 2026-05-05 09:51 | -33.28204 | 151.79496 | 28465 ft | 319 kts | 6° |
| 2026-05-05 09:51 | -33.26058 | 151.80186 | 28760 ft | 319 kts | 5° |
| 2026-05-05 09:52 | -33.23919 | 151.80874 | 29044 ft | 319 kts | 5° |
| 2026-05-05 09:52 | -33.21776 | 151.81562 | 29330 ft | 319 kts | 5° |
| 2026-05-05 09:52 | -33.19637 | 151.82250 | 29603 ft | 319 kts | 5° |
| 2026-05-05 09:52 | -33.17492 | 151.82939 | 29878 ft | 319 kts | 5° |
| 2026-05-05 09:53 | -33.15354 | 151.83625 | 30137 ft | 318 kts | 4° |
| 2026-05-05 09:53 | -33.13212 | 151.84313 | 30368 ft | 318 kts | 4° |
| 2026-05-05 09:53 | -33.11073 | 151.84999 | 30569 ft | 318 kts | 4° |
| 2026-05-05 09:53 | -33.08936 | 151.85683 | 30766 ft | 318 kts | 4° |
| 2026-05-05 09:54 | -33.06796 | 151.86367 | 30956 ft | 319 kts | 4° |
| 2026-05-05 09:54 | -33.04687 | 151.87041 | 31130 ft | 319 kts | 4° |
| 2026-05-05 09:54 | -33.02513 | 151.87736 | 31309 ft | 319 kts | 4° |
| 2026-05-05 09:54 | -33.00369 | 151.88422 | 31481 ft | 319 kts | 4° |
| 2026-05-05 09:55 | -32.98228 | 151.89106 | 31648 ft | 319 kts | 4° |
| 2026-05-05 09:55 | -32.96087 | 151.89791 | 31810 ft | 319 kts | 4° |
| 2026-05-05 09:55 | -32.93946 | 151.90475 | 31967 ft | 319 kts | 4° |
| 2026-05-05 09:55 | -32.91802 | 151.91161 | 32129 ft | 319 kts | 4° |
| 2026-05-05 09:56 | -32.89664 | 151.91844 | 32264 ft | 318 kts | 4° |
| 2026-05-05 09:56 | -32.87525 | 151.92527 | 32413 ft | 318 kts | 4° |
| 2026-05-05 09:56 | -32.85388 | 151.93210 | 32554 ft | 318 kts | 4° |
| 2026-05-05 09:56 | -32.83257 | 151.93890 | 32681 ft | 317 kts | 3° |
| 2026-05-05 09:57 | -32.81126 | 151.94570 | 32815 ft | 317 kts | 3° |
| 2026-05-05 09:57 | -32.79003 | 151.95246 | 32934 ft | 316 kts | 3° |
| 2026-05-05 09:57 | -32.76881 | 151.95923 | 33054 ft | 315 kts | 3° |
| 2026-05-05 09:57 | -32.74766 | 151.96598 | 33164 ft | 314 kts | 3° |
| 2026-05-05 09:58 | -32.72685 | 151.97262 | 33273 ft | 313 kts | 3° |
| 2026-05-05 09:58 | -32.70589 | 151.97930 | 33374 ft | 312 kts | 3° |
| 2026-05-05 09:58 | -32.66421 | 151.99260 | 33559 ft | 308 kts | 3° |
| 2026-05-05 09:59 | -32.62316 | 152.00571 | 33735 ft | 303 kts | 2° |
| 2026-05-05 09:59 | -32.60295 | 152.01216 | 33823 ft | 299 kts | 2° |
| 2026-05-05 09:59 | -32.58286 | 152.01855 | 33815 ft | 299 kts | 2° |
| 2026-05-05 10:00 | -32.56274 | 152.02489 | 33713 ft | 301 kts | 2° |
| 2026-05-05 10:00 | -32.54246 | 152.03123 | 33630 ft | 302 kts | 2° |
| 2026-05-05 10:00 | -32.52217 | 152.03762 | 33656 ft | 300 kts | 2° |
| 2026-05-05 10:00 | -32.50208 | 152.04400 | 33696 ft | 298 kts | 2° |
| 2026-05-05 10:01 | -32.48206 | 152.05034 | 33643 ft | 298 kts | 2° |
| 2026-05-05 10:01 | -32.46195 | 152.05667 | 33568 ft | 300 kts | 2° |
| 2026-05-05 10:01 | -32.44182 | 152.06303 | 33542 ft | 299 kts | 2° |
| 2026-05-05 10:01 | -32.42183 | 152.06938 | 33551 ft | 296 kts | 2° |
| 2026-05-05 10:02 | -32.40192 | 152.07567 | 33526 ft | 296 kts | 2° |
| 2026-05-05 10:02 | -32.38194 | 152.08195 | 33460 ft | 298 kts | 2° |
| 2026-05-05 10:02 | -32.36189 | 152.08825 | 33417 ft | 298 kts | 2° |
| 2026-05-05 10:02 | -32.34186 | 152.09456 | 33441 ft | 297 kts | 2° |
| 2026-05-05 10:03 | -32.32195 | 152.10086 | 33466 ft | 295 kts | 2° |
| 2026-05-05 10:03 | -32.30211 | 152.10714 | 33458 ft | 296 kts | 2° |
| 2026-05-05 10:03 | -32.28221 | 152.11341 | 33415 ft | 296 kts | 2° |
| 2026-05-05 10:03 | -32.26233 | 152.11968 | 33395 ft | 295 kts | 2° |
| 2026-05-05 10:04 | -32.24249 | 152.12594 | 33360 ft | 295 kts | 2° |
| 2026-05-05 10:04 | -32.22263 | 152.13218 | 33324 ft | 295 kts | 2° |
| 2026-05-05 10:04 | -32.20279 | 152.13840 | 33313 ft | 295 kts | 2° |
| 2026-05-05 10:04 | -32.18297 | 152.14464 | 33326 ft | 294 kts | 2° |
| 2026-05-05 10:05 | -32.16323 | 152.15088 | 33309 ft | 294 kts | 2° |
| 2026-05-05 10:05 | -32.14348 | 152.15709 | 33279 ft | 294 kts | 1° |
| 2026-05-05 10:05 | -32.12371 | 152.16328 | 33264 ft | 294 kts | 2° |
| 2026-05-05 10:05 | -32.10397 | 152.16949 | 33263 ft | 293 kts | 1° |
| 2026-05-05 10:06 | -32.08421 | 152.17569 | 33178 ft | 298 kts | 1° |
| 2026-05-05 10:06 | -32.06380 | 152.18194 | 32946 ft | 305 kts | 2° |
| 2026-05-05 10:06 | -32.02251 | 152.19480 | 32975 ft | 309 kts | 2° |
| 2026-05-05 10:07 | -31.98083 | 152.20782 | 33038 ft | 315 kts | 2° |
| 2026-05-05 10:07 | -31.93794 | 152.22120 | 33069 ft | 323 kts | 2° |
| 2026-05-05 10:08 | -31.89391 | 152.23490 | 33083 ft | 333 kts | 2° |
| 2026-05-05 10:08 | -31.84821 | 152.24908 | 33099 ft | 346 kts | 3° |
| 2026-05-05 10:09 | -31.80085 | 152.26378 | 33171 ft | 357 kts | 3° |
| 2026-05-05 10:09 | -31.75182 | 152.27902 | 33184 ft | 372 kts | 3° |
| 2026-05-05 10:10 | -31.70079 | 152.29482 | 33196 ft | 387 kts | 4° |
| 2026-05-05 10:10 | -31.64762 | 152.31129 | 33189 ft | 403 kts | 4° |
| 2026-05-05 10:11 | -31.59228 | 152.32842 | 33193 ft | 420 kts | 5° |
| 2026-05-05 10:11 | -31.53511 | 152.34613 | 33178 ft | 418 kts | 5° |
| 2026-05-05 10:12 | -31.50777 | 152.35491 | 33171 ft | 396 kts | 5° |
| 2026-05-05 10:12 | -31.48193 | 152.36334 | 33184 ft | 375 kts | 5° |
| 2026-05-05 10:12 | -31.45752 | 152.37127 | 33179 ft | 354 kts | 4° |
| 2026-05-05 10:12 | -31.43432 | 152.37876 | 33182 ft | 339 kts | 4° |
| 2026-05-05 10:13 | -31.38875 | 152.39288 | 33190 ft | 342 kts | 3° |
| 2026-05-05 10:13 | -31.34177 | 152.40693 | 33195 ft | 353 kts | 4° |
| 2026-05-05 10:14 | -31.29429 | 152.42129 | 33185 ft | 352 kts | 4° |
| 2026-05-05 10:14 | -31.24680 | 152.43584 | 33188 ft | 354 kts | 5° |
| 2026-05-05 10:15 | -31.19879 | 152.45051 | 33167 ft | 358 kts | 5° |
| 2026-05-05 10:15 | -31.15048 | 152.46537 | 33167 ft | 359 kts | 5° |
| 2026-05-05 10:16 | -31.10205 | 152.48027 | 33174 ft | 363 kts | 5° |
| 2026-05-05 10:16 | -31.05295 | 152.49545 | 33192 ft | 366 kts | 5° |
| 2026-05-05 10:17 | -31.00358 | 152.51067 | 33190 ft | 367 kts | 5° |
| 2026-05-05 10:17 | -30.95424 | 152.52587 | 33184 ft | 368 kts | 5° |
| 2026-05-05 10:18 | -30.90486 | 152.54101 | 33187 ft | 371 kts | 5° |
| 2026-05-05 10:18 | -30.85478 | 152.55634 | 33181 ft | 372 kts | 5° |
| 2026-05-05 10:19 | -30.80487 | 152.57248 | 33177 ft | 372 kts | 6° |
| 2026-05-05 10:19 | -30.75536 | 152.58984 | 33179 ft | 372 kts | 6° |
| 2026-05-05 10:20 | -30.70575 | 152.60761 | 33175 ft | 374 kts | 6° |
| 2026-05-05 10:20 | -30.65615 | 152.62555 | 33182 ft | 372 kts | 6° |
| 2026-05-05 10:21 | -30.60684 | 152.64341 | 33173 ft | 371 kts | 6° |
| 2026-05-05 10:21 | -30.55756 | 152.66116 | 33172 ft | 370 kts | 6° |
| 2026-05-05 10:22 | -30.50867 | 152.67884 | 33170 ft | 366 kts | 6° |
| 2026-05-05 10:22 | -30.46000 | 152.69641 | 33178 ft | 366 kts | 6° |
| 2026-05-05 10:23 | -30.41150 | 152.71388 | 33172 ft | 364 kts | 6° |
| 2026-05-05 10:23 | -30.36315 | 152.73128 | 33163 ft | 363 kts | 6° |
| 2026-05-05 10:24 | -30.31487 | 152.74862 | 33169 ft | 363 kts | 6° |
| 2026-05-05 10:24 | -30.26679 | 152.76592 | 33174 ft | 361 kts | 6° |
| 2026-05-05 10:25 | -30.21890 | 152.78312 | 33169 ft | 360 kts | 5° |
| 2026-05-05 10:25 | -30.17114 | 152.80025 | 33150 ft | 358 kts | 5° |
| 2026-05-05 10:26 | -30.12354 | 152.81732 | 33170 ft | 358 kts | 6° |
| 2026-05-05 10:26 | -30.08400 | 152.83147 | 33164 ft | 357 kts | 5° |
| 2026-05-05 10:27 | -30.03673 | 152.84843 | 33155 ft | 355 kts | 5° |
| 2026-05-05 10:27 | -29.98947 | 152.86534 | 33158 ft | 356 kts | 5° |
| 2026-05-05 10:28 | -29.94219 | 152.88224 | 33160 ft | 355 kts | 5° |
| 2026-05-05 10:28 | -29.89507 | 152.89905 | 33160 ft | 355 kts | 5° |
| 2026-05-05 10:29 | -29.84789 | 152.91585 | 33148 ft | 354 kts | 5° |
| 2026-05-05 10:29 | -29.80092 | 152.93261 | 33148 ft | 352 kts | 5° |
| 2026-05-05 10:30 | -29.75416 | 152.94928 | 33146 ft | 352 kts | 4° |
| 2026-05-05 10:30 | -29.70731 | 152.96592 | 33143 ft | 353 kts | 4° |
| 2026-05-05 10:31 | -29.66058 | 152.98253 | 33140 ft | 350 kts | 4° |
| 2026-05-05 10:31 | -29.61408 | 152.99905 | 33140 ft | 349 kts | 4° |
| 2026-05-05 10:32 | -29.56756 | 153.01552 | 33138 ft | 350 kts | 4° |
| 2026-05-05 10:32 | -29.52113 | 153.03193 | 33139 ft | 348 kts | 4° |
| 2026-05-05 10:33 | -29.47491 | 153.04827 | 33138 ft | 347 kts | 4° |
| 2026-05-05 10:33 | -29.42873 | 153.06457 | 33140 ft | 348 kts | 4° |
| 2026-05-05 10:34 | -29.38254 | 153.08086 | 33140 ft | 346 kts | 4° |
| 2026-05-05 10:34 | -29.33671 | 153.09705 | 33137 ft | 344 kts | 4° |
| 2026-05-05 10:35 | -29.29087 | 153.11317 | 33138 ft | 345 kts | 4° |
| 2026-05-05 10:35 | -29.24502 | 153.12931 | 33133 ft | 344 kts | 4° |
| 2026-05-05 10:36 | -29.19946 | 153.14538 | 33132 ft | 341 kts | 3° |
| 2026-05-05 10:36 | -29.15435 | 153.16123 | 33131 ft | 342 kts | 3° |
| 2026-05-05 10:37 | -29.13155 | 153.16920 | 32936 ft | 347 kts | 3° |
| 2026-05-05 10:37 | -29.10829 | 153.17725 | 32442 ft | 348 kts | 4° |
| 2026-05-05 10:37 | -29.08525 | 153.18536 | 31959 ft | 344 kts | 4° |
| 2026-05-05 10:37 | -29.06256 | 153.19339 | 31463 ft | 339 kts | 4° |
| 2026-05-05 10:38 | -29.04014 | 153.20134 | 30983 ft | 336 kts | 3° |
| 2026-05-05 10:38 | -29.01788 | 153.20919 | 30505 ft | 335 kts | 3° |
| 2026-05-05 10:38 | -28.99554 | 153.21700 | 30012 ft | 337 kts | 3° |
| 2026-05-05 10:38 | -28.97304 | 153.22478 | 29459 ft | 337 kts | 4° |
| 2026-05-05 10:39 | -28.95068 | 153.23252 | 28920 ft | 335 kts | 4° |
| 2026-05-05 10:39 | -28.92846 | 153.24022 | 28394 ft | 332 kts | 4° |
| 2026-05-05 10:39 | -28.90647 | 153.24786 | 27872 ft | 329 kts | 5° |
| 2026-05-05 10:39 | -28.88459 | 153.25547 | 27368 ft | 327 kts | 5° |
| 2026-05-05 10:40 | -28.86286 | 153.26302 | 26860 ft | 325 kts | 5° |
| 2026-05-05 10:40 | -28.84125 | 153.27051 | 26377 ft | 324 kts | 6° |
| 2026-05-05 10:40 | -28.81972 | 153.27797 | 25904 ft | 323 kts | 6° |
| 2026-05-05 10:40 | -28.79826 | 153.28540 | 25429 ft | 322 kts | 7° |
| 2026-05-05 10:41 | -28.77688 | 153.29282 | 24962 ft | 320 kts | 7° |
| 2026-05-05 10:41 | -28.75580 | 153.30015 | 24502 ft | 317 kts | 7° |
| 2026-05-05 10:41 | -28.73459 | 153.30364 | 24066 ft | 296 kts | 344° |
| 2026-05-05 10:41 | -28.71490 | 153.29836 | 23630 ft | 292 kts | 336° |
| 2026-05-05 10:42 | -28.67637 | 153.28362 | 22570 ft | 291 kts | 336° |
| 2026-05-05 10:42 | -28.65721 | 153.27649 | 22052 ft | 288 kts | 337° |
| 2026-05-05 10:42 | -28.63816 | 153.26973 | 21545 ft | 286 kts | 338° |
| 2026-05-05 10:43 | -28.61913 | 153.26331 | 21039 ft | 284 kts | 339° |
| 2026-05-05 10:43 | -28.60020 | 153.25721 | 20553 ft | 282 kts | 339° |
| 2026-05-05 10:43 | -28.58133 | 153.25134 | 20080 ft | 280 kts | 340° |
| 2026-05-05 10:43 | -28.56256 | 153.24569 | 19609 ft | 278 kts | 341° |
| 2026-05-05 10:44 | -28.54390 | 153.24022 | 19122 ft | 276 kts | 341° |
| 2026-05-05 10:44 | -28.52532 | 153.23489 | 18666 ft | 275 kts | 342° |
| 2026-05-05 10:44 | -28.50680 | 153.22966 | 18197 ft | 274 kts | 342° |
| 2026-05-05 10:44 | -28.48827 | 153.22448 | 17664 ft | 273 kts | 342° |
| 2026-05-05 10:45 | -28.46981 | 153.21934 | 17156 ft | 273 kts | 342° |
| 2026-05-05 10:45 | -28.45156 | 153.21429 | 16656 ft | 274 kts | 343° |
| 2026-05-05 10:45 | -28.43281 | 153.20912 | 16146 ft | 274 kts | 343° |
| 2026-05-05 10:45 | -28.41452 | 153.20411 | 15671 ft | 274 kts | 344° |
| 2026-05-05 10:46 | -28.39595 | 153.19904 | 15189 ft | 274 kts | 344° |
| 2026-05-05 10:46 | -28.37741 | 153.19398 | 14721 ft | 274 kts | 345° |
| 2026-05-05 10:46 | -28.35888 | 153.18894 | 14256 ft | 274 kts | 345° |
| 2026-05-05 10:46 | -28.34009 | 153.18384 | 13770 ft | 274 kts | 345° |
| 2026-05-05 10:47 | -28.32160 | 153.17884 | 13238 ft | 273 kts | 345° |
| 2026-05-05 10:47 | -28.30311 | 153.17388 | 12726 ft | 273 kts | 345° |
| 2026-05-05 10:47 | -28.28462 | 153.16893 | 12216 ft | 273 kts | 346° |
| 2026-05-05 10:47 | -28.26615 | 153.16397 | 11722 ft | 273 kts | 345° |
| 2026-05-05 10:48 | -28.24764 | 153.15902 | 11239 ft | 273 kts | 345° |
| 2026-05-05 10:48 | -28.22914 | 153.15404 | 10757 ft | 274 kts | 346° |
| 2026-05-05 10:48 | -28.21087 | 153.14909 | 10353 ft | 272 kts | 346° |
| 2026-05-05 10:48 | -28.19244 | 153.14409 | 10088 ft | 263 kts | 346° |
| 2026-05-05 10:49 | -28.17485 | 153.13934 | 9934 ft | 263 kts | 346° |
| 2026-05-05 10:49 | -28.15631 | 153.13435 | 9481 ft | 276 kts | 346° |
| 2026-05-05 10:49 | -28.13770 | 153.12935 | 9061 ft | 273 kts | 346° |
| 2026-05-05 10:49 | -28.11926 | 153.12438 | 8610 ft | 272 kts | 346° |
| 2026-05-05 10:50 | -28.10087 | 153.11940 | 8165 ft | 271 kts | 346° |
| 2026-05-05 10:50 | -28.08257 | 153.11447 | 7727 ft | 270 kts | 346° |
| 2026-05-05 10:50 | -28.06435 | 153.10955 | 7302 ft | 268 kts | 346° |
| 2026-05-05 10:50 | -28.04647 | 153.10475 | 6898 ft | 267 kts | 347° |
| 2026-05-05 10:51 | -28.02844 | 153.09988 | 6470 ft | 266 kts | 347° |
| 2026-05-05 10:51 | -28.01048 | 153.09507 | 6031 ft | 265 kts | 347° |
| 2026-05-05 10:51 | -27.99258 | 153.09029 | 5601 ft | 264 kts | 346° |
| 2026-05-05 10:51 | -27.97477 | 153.08553 | 5206 ft | 261 kts | 346° |
| 2026-05-05 10:52 | -27.95728 | 153.08087 | 4950 ft | 251 kts | 346° |
| 2026-05-05 10:52 | -27.94050 | 153.07637 | 4967 ft | 252 kts | 346° |
| 2026-05-05 10:52 | -27.92323 | 153.07172 | 4979 ft | 255 kts | 346° |
| 2026-05-05 10:52 | -27.90596 | 153.06706 | 4987 ft | 256 kts | 346° |
| 2026-05-05 10:53 | -27.88860 | 153.06239 | 4995 ft | 256 kts | 346° |
| 2026-05-05 10:53 | -27.87120 | 153.05772 | 4992 ft | 258 kts | 346° |
| 2026-05-05 10:53 | -27.85378 | 153.05303 | 4996 ft | 257 kts | 346° |
| 2026-05-05 10:53 | -27.83639 | 153.04836 | 4993 ft | 258 kts | 346° |
| 2026-05-05 10:54 | -27.81892 | 153.04368 | 4991 ft | 257 kts | 346° |
| 2026-05-05 10:54 | -27.80154 | 153.03901 | 4990 ft | 257 kts | 346° |
| 2026-05-05 10:54 | -27.78408 | 153.03432 | 4983 ft | 257 kts | 347° |
| 2026-05-05 10:54 | -27.76673 | 153.02968 | 4989 ft | 256 kts | 347° |
| 2026-05-05 10:55 | -27.74939 | 153.02471 | 4988 ft | 257 kts | 340° |
| 2026-05-05 10:55 | -27.73281 | 153.01715 | 4990 ft | 257 kts | 336° |
| 2026-05-05 10:55 | -27.71617 | 153.00994 | 4989 ft | 256 kts | 343° |
| 2026-05-05 10:55 | -27.69877 | 153.00459 | 4687 ft | 265 kts | 347° |
| 2026-05-05 10:56 | -27.68073 | 153.00011 | 4189 ft | 266 kts | 349° |
| 2026-05-05 10:56 | -27.66260 | 152.99573 | 3696 ft | 267 kts | 346° |
| 2026-05-05 10:56 | -27.64458 | 152.99051 | 3250 ft | 266 kts | 350° |
| 2026-05-05 10:56 | -27.62659 | 152.99075 | 2951 ft | 255 kts | 13° |
| 2026-05-05 10:57 | -27.61002 | 152.99572 | 2971 ft | 243 kts | 18° |
| 2026-05-05 10:57 | -27.59383 | 153.00145 | 2982 ft | 244 kts | 19° |
| 2026-05-05 10:57 | -27.57786 | 153.00746 | 2982 ft | 242 kts | 20° |
| 2026-05-05 10:57 | -27.56182 | 153.01374 | 2986 ft | 243 kts | 20° |
| 2026-05-05 10:58 | -27.54607 | 153.02009 | 3054 ft | 230 kts | 21° |
| 2026-05-05 10:58 | -27.53203 | 153.02586 | 2956 ft | 203 kts | 21° |
| 2026-05-05 10:58 | -27.51982 | 153.03099 | 2966 ft | 168 kts | 22° |
| 2026-05-05 10:58 | -27.50909 | 153.03560 | 2758 ft | 168 kts | 23° |
| 2026-05-05 10:59 | -27.49858 | 153.04073 | 2525 ft | 162 kts | 26° |
| 2026-05-05 10:59 | -27.48838 | 153.04630 | 2296 ft | 160 kts | 28° |
| 2026-05-05 10:59 | -27.47866 | 153.05185 | 2084 ft | 158 kts | 29° |
| 2026-05-05 10:59 | -27.46895 | 153.05748 | 1871 ft | 155 kts | 30° |
| 2026-05-05 11:00 | -27.45975 | 153.06282 | 1666 ft | 142 kts | 29° |
| 2026-05-05 11:00 | -27.45107 | 153.06784 | 1483 ft | 141 kts | 30° |
| 2026-05-05 11:00 | -27.44229 | 153.07292 | 1312 ft | 142 kts | 29° |
| 2026-05-05 11:00 | -27.43350 | 153.07797 | 1135 ft | 142 kts | 29° |
| 2026-05-05 11:01 | -27.42466 | 153.08305 | 945 ft | 143 kts | 28° |
| 2026-05-05 11:01 | -27.41577 | 153.08813 | 753 ft | 143 kts | 28° |
| 2026-05-05 11:01 | -27.40690 | 153.09318 | 573 ft | 143 kts | 28° |
| 2026-05-05 11:01 | -27.39796 | 153.09827 | 389 ft | 144 kts | 28° |
| 2026-05-05 11:02 | -27.38900 | 153.10340 | 204 ft | 144 kts | 28° |
| 2026-05-05 11:02 | -27.38009 | 153.10850 | 59 ft | 142 kts | 28° |
| 2026-05-05 11:02 | -27.37137 | 153.11357 | 19 ft | 132 kts | 29° |
| 2026-05-05 11:02 | -27.36651 | 153.11711 | 18 ft | 48 kts | 50° |
| 2026-05-05 11:03 | -27.36624 | 153.11842 | 20 ft | 28 kts | 113° |
| 2026-05-05 11:03 | -27.36646 | 153.11900 | 18 ft | 0 kts | 117° |
| 2026-05-05 11:03 | -27.36647 | 153.11902 | 18 ft | 2 kts | 118° |
| 2026-05-05 11:03 | -27.36734 | 153.11908 | 18 ft | 26 kts | 206° |
| 2026-05-05 11:04 | -27.36953 | 153.11784 | 18 ft | 36 kts | 207° |
| 2026-05-05 11:04 | -27.37152 | 153.11671 | 19 ft | 28 kts | 207° |
| 2026-05-05 11:04 | -27.37310 | 153.11613 | 18 ft | 13 kts | 163° |
| 2026-05-05 11:04 | -27.37356 | 153.11681 | 18 ft | 21 kts | 116° |
| 2026-05-05 11:05 | -27.37475 | 153.11942 | 19 ft | 51 kts | 117° |
| 2026-05-05 11:05 | -27.37620 | 153.12263 | 18 ft | 37 kts | 117° |
| 2026-05-05 11:05 | -27.37734 | 153.12515 | 18 ft | 34 kts | 117° |
| 2026-05-05 11:05 | -27.37830 | 153.12725 | 18 ft | 23 kts | 117° |
| 2026-05-05 11:06 | -27.37871 | 153.12796 | 18 ft | 5 kts | 146° |
| 2026-05-05 11:06 | -27.37973 | 153.12776 | 19 ft | 24 kts | 208° |
| 2026-05-05 11:06 | -27.38076 | 153.12621 | 19 ft | 28 kts | 211° |
| 2026-05-05 11:06 | -27.38262 | 153.12496 | 18 ft | 27 kts | 239° |
| 2026-05-05 11:07 | -27.38334 | 153.12411 | 18 ft | 17 kts | 182° |
| 2026-05-05 11:07 | -27.38465 | 153.12377 | 18 ft | 21 kts | 207° |
| 2026-05-05 11:07 | -27.38582 | 153.12331 | 18 ft | 18 kts | 195° |
| 2026-05-05 11:07 | -27.38702 | 153.12266 | 20 ft | 16 kts | 232° |
| 2026-05-05 11:08 | -27.38723 | 153.12181 | 18 ft | 11 kts | 265° |
| 2026-05-05 11:08 | -27.38652 | 153.12118 | 18 ft | 13 kts | 355° |
| 2026-05-05 11:08 | -27.38613 | 153.12079 | 18 ft | 3 kts | 304° |
| 2026-05-05 11:08 | -27.38611 | 153.12077 | 18 ft | 0 kts | 306° |